Time;durP1;ratioP1;P1;durP2;ratioP2;P2;SDS_P1;SDS_P2;PMS_P1;PMS_P2;Temp;Humidity;BMP_temperature;BMP_pressure;BME280_temperature;BME280_humidity;BME280_pressure;Samples;Min_cycle;Max_cycle;Signal;HPM_P1;HPM_P2
2022/07/31 00:00:29;;;;;;;7.25;2.85;;;17.80;99.90;;;;;;5031671;28;20053;-62
2022/07/31 00:02:56;;;;;;;4.90;2.38;;;17.80;99.90;;;;;;5037709;28;20091;-62
2022/07/31 00:05:22;;;;;;;4.95;2.50;;;17.80;99.90;;;;;;5051164;28;20048;-62
2022/07/31 00:07:48;;;;;;;4.45;2.40;;;17.80;99.90;;;;;;5035033;28;20396;-62
2022/07/31 00:10:14;;;;;;;3.03;2.25;;;17.80;99.90;;;;;;5051146;28;20040;-62
2022/07/31 00:12:39;;;;;;;6.95;2.83;;;17.80;99.90;;;;;;5041722;28;20443;-62
2022/07/31 00:15:08;;;;;;;7.78;2.90;;;17.80;99.90;;;;;;5045830;28;20052;-62
2022/07/31 00:17:36;;;;;;;3.45;2.80;;;17.80;99.90;;;;;;5013191;28;20121;-62
2022/07/31 00:20:02;;;;;;;6.22;2.80;;;17.80;99.90;;;;;;5029682;28;20252;-62
2022/07/31 00:22:28;;;;;;;6.55;2.72;;;17.70;99.90;;;;;;5030788;28;20523;-62
2022/07/31 00:24:53;;;;;;;5.70;2.80;;;17.80;99.90;;;;;;5025751;28;20057;-62
2022/07/31 00:27:19;;;;;;;6.35;2.85;;;17.80;99.90;;;;;;5033355;28;20057;-62
2022/07/31 00:29:45;;;;;;;4.15;3.00;;;17.70;99.90;;;;;;5033579;28;20679;-62
2022/07/31 00:32:11;;;;;;;7.82;2.80;;;17.70;99.90;;;;;;5029043;28;20045;-63
2022/07/31 00:34:36;;;;;;;4.93;2.88;;;17.70;99.90;;;;;;5042609;28;20056;-62
2022/07/31 00:37:02;;;;;;;4.80;3.08;;;17.70;99.90;;;;;;5015847;28;20060;-62
2022/07/31 00:39:29;;;;;;;5.43;3.25;;;17.60;99.90;;;;;;5030502;28;20046;-62
2022/07/31 00:41:55;;;;;;;9.93;3.20;;;17.60;99.90;;;;;;5040828;28;20072;-62
2022/07/31 00:44:21;;;;;;;4.47;2.88;;;17.60;99.90;;;;;;5032854;28;20049;-62
2022/07/31 00:46:46;;;;;;;9.07;3.17;;;17.60;99.90;;;;;;5033641;28;20498;-63
2022/07/31 00:49:12;;;;;;;4.80;2.58;;;17.60;99.90;;;;;;5046729;28;20049;-63
2022/07/31 00:51:39;;;;;;;4.85;3.03;;;17.60;99.90;;;;;;5030580;28;20554;-62
2022/07/31 00:54:05;;;;;;;4.63;2.90;;;17.60;99.90;;;;;;5029918;28;20468;-63
2022/07/31 00:56:31;;;;;;;6.35;3.20;;;17.60;99.90;;;;;;5015730;28;20103;-63
2022/07/31 00:58:57;;;;;;;5.55;3.28;;;17.60;99.90;;;;;;5041114;28;20430;-62
2022/07/31 01:01:22;;;;;;;6.68;3.00;;;17.50;99.90;;;;;;5030504;28;20153;-62
2022/07/31 01:03:49;;;;;;;7.30;3.17;;;17.50;99.90;;;;;;5042443;28;20440;-62
2022/07/31 01:06:15;;;;;;;3.85;3.30;;;17.50;99.90;;;;;;5041223;28;20128;-63
2022/07/31 01:08:40;;;;;;;6.72;3.63;;;17.40;99.90;;;;;;5043194;28;20132;-62
2022/07/31 01:11:43;;;;;;;4.32;3.50;;;17.40;99.90;;;;;;5046998;28;20084;-62
2022/07/31 01:14:09;;;;;;;6.25;3.60;;;17.30;99.90;;;;;;5048042;28;20045;-62
2022/07/31 01:16:37;;;;;;;8.13;3.75;;;17.30;99.90;;;;;;5025075;28;20052;-63
2022/07/31 01:19:24;;;;;;;6.50;3.50;;;17.30;99.90;;;;;;5027959;28;20053;-62
2022/07/31 01:22:07;;;;;;;4.95;3.40;;;17.30;99.90;;;;;;5043157;28;20049;-62
2022/07/31 01:24:43;;;;;;;6.35;3.20;;;17.30;99.90;;;;;;5035433;28;20430;-63
2022/07/31 01:27:34;;;;;;;5.60;3.20;;;17.30;99.90;;;;;;5029577;28;20152;-63
2022/07/31 01:30:02;;;;;;;7.05;3.35;;;17.30;99.90;;;;;;5032009;28;20049;-62
2022/07/31 01:32:33;;;;;;;4.82;3.03;;;17.20;99.90;;;;;;5028284;28;20408;-62
2022/07/31 01:35:31;;;;;;;5.63;3.40;;;17.30;99.90;;;;;;5028608;28;20053;-62
2022/07/31 01:38:06;;;;;;;5.07;3.50;;;17.30;99.90;;;;;;5013006;28;20068;-62
2022/07/31 01:40:34;;;;;;;7.10;3.33;;;17.20;99.90;;;;;;5030078;28;20061;-62
2022/07/31 01:43:22;;;;;;;8.40;3.45;;;17.30;99.90;;;;;;5036809;28;20458;-62
2022/07/31 01:45:52;;;;;;;6.10;3.10;;;17.20;99.90;;;;;;5052412;28;20541;-63
2022/07/31 01:48:19;;;;;;;8.00;3.42;;;17.30;99.90;;;;;;5016692;28;20057;-62
2022/07/31 01:50:48;;;;;;;5.57;3.78;;;17.20;99.90;;;;;;5034195;28;20088;-62
2022/07/31 01:53:17;;;;;;;5.10;3.17;;;17.20;99.90;;;;;;5033427;28;20049;-62
2022/07/31 01:55:44;;;;;;;4.30;3.30;;;17.20;99.90;;;;;;5035522;28;20037;-62
2022/07/31 01:58:11;;;;;;;6.15;3.58;;;17.30;99.90;;;;;;5036831;28;20131;-62
2022/07/31 02:00:37;;;;;;;6.75;3.60;;;17.30;99.90;;;;;;5052512;28;20049;-62
2022/07/31 02:03:05;;;;;;;5.80;3.50;;;17.30;99.90;;;;;;5042535;28;20053;-62
2022/07/31 02:05:33;;;;;;;4.43;3.40;;;17.20;99.90;;;;;;5029006;28;20131;-62
2022/07/31 02:07:59;;;;;;;6.63;3.80;;;17.30;99.90;;;;;;5017823;28;20045;-62
2022/07/31 02:10:26;;;;;;;5.88;3.38;;;17.20;99.90;;;;;;5048981;28;20106;-62
2022/07/31 02:12:52;;;;;;;9.02;3.95;;;17.30;99.90;;;;;;5046863;28;20048;-62
2022/07/31 02:15:20;;;;;;;5.65;3.70;;;17.30;99.90;;;;;;5050675;28;20118;-62
2022/07/31 02:17:47;;;;;;;5.90;3.72;;;17.30;99.90;;;;;;5017309;28;20038;-62
2022/07/31 02:20:14;;;;;;;5.90;3.40;;;17.30;99.90;;;;;;5037018;28;20132;-62
2022/07/31 02:22:40;;;;;;;6.82;3.65;;;17.20;99.90;;;;;;5048136;28;20045;-62
2022/07/31 02:25:06;;;;;;;7.22;3.58;;;17.30;99.90;;;;;;5033355;28;20053;-62
2022/07/31 02:27:32;;;;;;;4.93;3.13;;;17.20;99.90;;;;;;5015608;28;20124;-62
2022/07/31 02:30:01;;;;;;;4.82;3.45;;;17.20;99.90;;;;;;5038704;28;20060;-62
2022/07/31 02:32:28;;;;;;;5.00;3.13;;;17.20;99.90;;;;;;5051117;28;20043;-62
2022/07/31 02:34:55;;;;;;;5.60;3.55;;;17.30;99.90;;;;;;5045199;28;20045;-62
2022/07/31 02:37:23;;;;;;;4.90;3.47;;;17.20;99.90;;;;;;5017963;28;20107;-62
2022/07/31 02:39:51;;;;;;;6.00;3.47;;;17.30;99.90;;;;;;5038151;28;20492;-62
2022/07/31 02:42:19;;;;;;;3.55;2.95;;;17.30;99.90;;;;;;5052242;28;20056;-62
2022/07/31 02:44:46;;;;;;;4.30;3.00;;;17.30;99.90;;;;;;5048362;28;20059;-62
2022/07/31 02:47:12;;;;;;;6.72;2.95;;;17.30;99.90;;;;;;5036818;28;20084;-62
2022/07/31 02:49:39;;;;;;;5.60;3.08;;;17.30;99.90;;;;;;5051580;28;20067;-62
2022/07/31 02:52:05;;;;;;;4.72;3.08;;;17.30;99.90;;;;;;5039818;28;20053;-63
2022/07/31 02:54:34;;;;;;;6.38;3.20;;;17.30;99.90;;;;;;5033056;28;20041;-62
2022/07/31 02:57:01;;;;;;;3.90;2.80;;;17.30;99.90;;;;;;5015561;28;20057;-63
2022/07/31 02:59:27;;;;;;;5.85;2.83;;;17.30;99.90;;;;;;5036171;28;20500;-62
2022/07/31 03:01:53;;;;;;;5.85;3.42;;;17.30;99.90;;;;;;5051506;28;20060;-62
2022/07/31 03:04:19;;;;;;;6.63;3.17;;;17.20;99.90;;;;;;5048535;28;20128;-62
2022/07/31 03:06:47;;;;;;;4.07;2.65;;;17.20;99.90;;;;;;5036969;28;20053;-62
2022/07/31 03:09:14;;;;;;;4.55;3.00;;;17.20;99.90;;;;;;5051361;28;20103;-62
2022/07/31 03:11:39;;;;;;;4.60;3.05;;;17.20;99.90;;;;;;5050335;28;20041;-62
2022/07/31 03:14:06;;;;;;;5.90;2.90;;;17.20;99.90;;;;;;5044996;28;20049;-62
2022/07/31 03:16:34;;;;;;;4.03;2.80;;;17.20;99.90;;;;;;5030492;28;20046;-62
2022/07/31 03:19:01;;;;;;;4.72;3.00;;;17.20;99.90;;;;;;5047404;28;20099;-62
2022/07/31 03:21:28;;;;;;;5.57;2.80;;;17.20;99.90;;;;;;5049699;28;20033;-62
2022/07/31 03:23:54;;;;;;;4.22;3.00;;;17.20;99.90;;;;;;5032210;28;20080;-62
2022/07/31 03:26:20;;;;;;;7.88;3.40;;;17.20;99.90;;;;;;5020778;28;20103;-62
2022/07/31 03:28:45;;;;;;;7.00;3.63;;;17.20;99.90;;;;;;5045144;28;20049;-62
2022/07/31 03:31:11;;;;;;;3.97;3.17;;;17.10;99.90;;;;;;5052259;28;20041;-62
2022/07/31 03:33:37;;;;;;;6.65;3.60;;;17.10;99.90;;;;;;5051043;28;20514;-62
2022/07/31 03:36:03;;;;;;;5.03;3.40;;;17.10;99.90;;;;;;5050572;28;20056;-62
2022/07/31 03:38:29;;;;;;;7.50;3.60;;;17.10;99.90;;;;;;5035020;28;20181;-62
2022/07/31 03:40:54;;;;;;;3.45;3.15;;;17.10;99.90;;;;;;5050105;28;20052;-62
2022/07/31 03:43:21;;;;;;;3.90;3.20;;;17.10;99.90;;;;;;5042483;28;20524;-62
2022/07/31 03:45:48;;;;;;;9.40;4.15;;;17.00;99.90;;;;;;5043233;28;20111;-62
2022/07/31 03:48:14;;;;;;;5.00;3.60;;;17.00;99.90;;;;;;5034191;28;20045;-62
2022/07/31 03:50:41;;;;;;;6.00;2.80;;;16.90;99.90;;;;;;5037119;28;20045;-62
2022/07/31 03:53:07;;;;;;;6.35;3.58;;;16.90;99.90;;;;;;5029441;28;20512;-62
2022/07/31 03:55:36;;;;;;;6.10;3.40;;;16.80;99.90;;;;;;5031844;28;20111;-62
2022/07/31 03:58:02;;;;;;;4.85;3.28;;;16.70;99.90;;;;;;5015071;28;20520;-62
2022/07/31 04:00:28;;;;;;;4.70;2.95;;;16.70;99.90;;;;;;5031697;28;20077;-62
2022/07/31 04:02:55;;;;;;;6.65;3.30;;;16.70;99.90;;;;;;5030218;28;20048;-62
2022/07/31 04:05:22;;;;;;;4.88;3.10;;;16.70;99.90;;;;;;5043043;28;20052;-62
2022/07/31 04:07:49;;;;;;;6.90;3.60;;;16.70;99.90;;;;;;5023833;28;20045;-62
2022/07/31 04:10:15;;;;;;;6.22;3.50;;;16.70;99.90;;;;;;5051204;28;20080;-62
2022/07/31 04:12:40;;;;;;;6.22;3.45;;;16.80;99.90;;;;;;5017119;28;20122;-62
2022/07/31 04:15:06;;;;;;;5.78;3.40;;;16.70;99.90;;;;;;5047467;28;20056;-62
2022/07/31 04:17:32;;;;;;;5.07;3.42;;;16.70;99.90;;;;;;5013455;28;20121;-62
2022/07/31 04:19:58;;;;;;;5.30;3.60;;;16.70;99.90;;;;;;5031345;28;20136;-62
2022/07/31 04:22:24;;;;;;;5.05;4.10;;;16.70;99.90;;;;;;5032736;28;20045;-62
2022/07/31 04:24:49;;;;;;;4.45;3.72;;;16.80;99.90;;;;;;5029813;28;20128;-61
2022/07/31 04:27:16;;;;;;;5.68;4.15;;;16.80;99.90;;;;;;5022597;28;20049;-62
2022/07/31 04:29:45;;;;;;;9.55;3.80;;;16.80;99.90;;;;;;5046008;28;20085;-62
2022/07/31 04:32:11;;;;;;;6.20;3.95;;;16.80;99.90;;;;;;5029061;28;20124;-62
2022/07/31 04:34:37;;;;;;;6.68;3.88;;;16.80;99.90;;;;;;5030715;28;20077;-61
2022/07/31 04:37:03;;;;;;;7.63;4.47;;;16.90;99.90;;;;;;5007999;28;20051;-62
2022/07/31 04:39:29;;;;;;;5.45;3.90;;;16.90;99.90;;;;;;5035761;28;20052;-62
2022/07/31 04:41:55;;;;;;;6.53;4.60;;;16.90;99.90;;;;;;5049426;28;20048;-62
2022/07/31 04:44:21;;;;;;;6.72;4.15;;;16.90;99.90;;;;;;5032149;28;20056;-62
2022/07/31 04:46:47;;;;;;;7.65;4.30;;;17.00;99.90;;;;;;5033872;28;20087;-62
2022/07/31 04:49:13;;;;;;;7.90;4.05;;;17.00;99.90;;;;;;5049793;28;20457;-63
2022/07/31 04:51:41;;;;;;;4.93;3.92;;;17.00;99.90;;;;;;5050607;28;20468;-62
2022/07/31 04:54:07;;;;;;;5.25;4.05;;;17.00;99.90;;;;;;5046106;28;20510;-62
2022/07/31 04:56:34;;;;;;;6.32;4.03;;;17.00;99.90;;;;;;5017424;28;20679;-62
2022/07/31 04:59:06;;;;;;;5.57;4.13;;;17.00;99.90;;;;;;5026197;28;20103;-61
2022/07/31 05:01:33;;;;;;;6.78;4.30;;;17.10;99.90;;;;;;5031016;28;20041;-61
2022/07/31 05:03:59;;;;;;;5.32;4.13;;;17.10;99.90;;;;;;5032073;28;20083;-62
2022/07/31 05:06:45;;;;;;;7.28;4.22;;;17.10;99.90;;;;;;5036701;28;20049;-62
2022/07/31 05:09:13;;;;;;;5.82;4.45;;;17.10;99.90;;;;;;5047887;28;20126;-62
2022/07/31 05:11:40;;;;;;;5.90;3.92;;;17.10;99.90;;;;;;5050316;28;20080;-62
2022/07/31 05:14:11;;;;;;;6.10;3.88;;;17.10;99.90;;;;;;5029078;28;20495;-62
2022/07/31 05:16:37;;;;;;;6.65;4.03;;;17.20;99.90;;;;;;5025348;28;20049;-62
2022/07/31 05:19:04;;;;;;;5.95;4.30;;;17.20;99.90;;;;;;5046386;28;20419;-61
2022/07/31 05:21:30;;;;;;;8.63;4.53;;;17.20;99.90;;;;;;5048166;28;20049;-62
2022/07/31 05:23:57;;;;;;;6.50;3.85;;;17.20;99.90;;;;;;5038855;28;20124;-62
2022/07/31 05:26:27;;;;;;;6.00;4.35;;;17.20;99.90;;;;;;5019828;28;20038;-62
2022/07/31 05:28:55;;;;;;;8.50;4.35;;;17.30;99.90;;;;;;5044052;28;20059;-61
2022/07/31 05:31:21;;;;;;;6.47;4.18;;;17.30;99.90;;;;;;5032724;28;20492;-62
2022/07/31 05:33:49;;;;;;;7.60;4.00;;;17.30;99.90;;;;;;5029162;28;20060;-61
2022/07/31 05:36:16;;;;;;;6.90;3.95;;;17.40;99.90;;;;;;5019621;28;20128;-62
2022/07/31 05:38:42;;;;;;;9.07;4.57;;;17.40;99.90;;;;;;5017361;28;20049;-62
2022/07/31 05:41:08;;;;;;;6.30;4.32;;;17.40;99.90;;;;;;5037417;28;20397;-61
2022/07/31 05:43:34;;;;;;;6.55;3.97;;;17.50;99.90;;;;;;5042701;28;20408;-62
2022/07/31 05:46:00;;;;;;;6.57;4.53;;;17.50;99.90;;;;;;5043901;28;20515;-62
2022/07/31 05:48:25;;;;;;;8.05;4.40;;;17.50;99.90;;;;;;5016472;28;20154;-62
2022/07/31 05:50:51;;;;;;;6.13;4.35;;;17.50;99.90;;;;;;5036064;28;20071;-62
2022/07/31 05:53:19;;;;;;;7.10;4.15;;;17.60;99.90;;;;;;5047240;28;20488;-62
2022/07/31 05:55:46;;;;;;;4.18;3.70;;;17.60;99.90;;;;;;5033132;28;20060;-62
2022/07/31 05:58:12;;;;;;;7.95;4.32;;;17.70;99.90;;;;;;5013344;28;20079;-62
2022/07/31 06:00:39;;;;;;;7.03;4.50;;;17.70;99.90;;;;;;5028363;28;20107;-61
2022/07/31 06:03:05;;;;;;;7.53;4.15;;;17.80;99.90;;;;;;5037449;28;20538;-61
2022/07/31 06:05:31;;;;;;;6.60;4.70;;;17.90;99.90;;;;;;5045536;28;20111;-62
2022/07/31 06:08:00;;;;;;;8.63;5.15;;;17.90;99.90;;;;;;5012191;28;20076;-62
2022/07/31 06:10:27;;;;;;;7.90;4.53;;;18.00;99.90;;;;;;5031569;28;20072;-62
2022/07/31 06:12:53;;;;;;;8.50;4.60;;;18.10;99.90;;;;;;5036719;28;20037;-62
2022/07/31 06:15:19;;;;;;;6.25;4.38;;;18.10;99.90;;;;;;5039168;28;20056;-61
2022/07/31 06:17:45;;;;;;;6.60;4.45;;;18.20;99.90;;;;;;5013217;28;20041;-61
2022/07/31 06:20:12;;;;;;;8.82;4.50;;;18.30;99.90;;;;;;5029346;28;20060;-61
2022/07/31 06:22:39;;;;;;;8.13;4.78;;;18.30;99.90;;;;;;5031392;28;20042;-62
2022/07/31 06:25:07;;;;;;;6.15;3.80;;;18.40;99.90;;;;;;5028145;28;20049;-62
2022/07/31 06:27:34;;;;;;;8.40;4.35;;;18.50;99.90;;;;;;5024394;28;20514;-62
2022/07/31 06:30:00;;;;;;;7.38;4.38;;;18.50;99.90;;;;;;5033623;28;20053;-62
2022/07/31 06:32:25;;;;;;;7.97;4.47;;;18.50;99.90;;;;;;5032331;28;20049;-62
2022/07/31 06:34:51;;;;;;;8.07;4.63;;;18.60;99.90;;;;;;5033444;28;20046;-62
2022/07/31 06:37:17;;;;;;;5.60;4.20;;;18.60;99.90;;;;;;5029489;28;20049;-62
2022/07/31 06:39:42;;;;;;;6.57;3.90;;;18.70;99.90;;;;;;5051874;28;20056;-62
2022/07/31 06:42:08;;;;;;;5.03;4.38;;;18.80;99.90;;;;;;5030723;28;20063;-62
2022/07/31 06:44:34;;;;;;;7.22;4.22;;;18.80;99.90;;;;;;5050402;28;20040;-62
2022/07/31 06:46:59;;;;;;;6.72;4.57;;;18.90;99.90;;;;;;5037339;28;20118;-62
2022/07/31 06:49:25;;;;;;;8.75;5.07;;;18.90;99.90;;;;;;5050782;28;20518;-61
2022/07/31 06:51:52;;;;;;;9.23;4.70;;;18.90;99.90;;;;;;5051352;28;20048;-61
2022/07/31 06:54:17;;;;;;;8.98;4.13;;;19.00;99.90;;;;;;5051784;28;20056;-61
2022/07/31 06:56:43;;;;;;;7.05;4.55;;;19.00;99.90;;;;;;5028865;28;20496;-61
2022/07/31 06:59:09;;;;;;;6.10;4.57;;;19.00;99.90;;;;;;5033165;28;20603;-62
2022/07/31 07:01:35;;;;;;;5.15;4.57;;;19.10;99.90;;;;;;5052965;28;20049;-62
2022/07/31 07:04:01;;;;;;;6.25;4.80;;;19.10;99.90;;;;;;5039021;28;20056;-62
2022/07/31 07:06:26;;;;;;;7.20;4.47;;;19.10;99.90;;;;;;5040328;28;20504;-62
2022/07/31 07:08:52;;;;;;;9.38;4.80;;;19.20;99.90;;;;;;5063778;28;20045;-62
2022/07/31 07:11:19;;;;;;;6.57;4.40;;;19.20;99.90;;;;;;5050416;28;20048;-61
2022/07/31 07:13:44;;;;;;;6.85;4.85;;;19.20;99.90;;;;;;5032938;28;20045;-61
2022/07/31 07:16:10;;;;;;;5.97;4.47;;;19.20;99.90;;;;;;5035389;28;20132;-63
2022/07/31 07:18:36;;;;;;;10.07;4.75;;;19.20;99.90;;;;;;5035036;28;20045;-62
2022/07/31 07:21:02;;;;;;;5.22;4.53;;;19.20;99.90;;;;;;5052138;28;20072;-62
2022/07/31 07:23:27;;;;;;;7.82;5.10;;;19.20;99.90;;;;;;5043124;28;20041;-61
2022/07/31 07:25:53;;;;;;;6.75;5.10;;;19.20;99.90;;;;;;5014678;28;20053;-62
2022/07/31 07:28:19;;;;;;;7.63;4.90;;;19.20;99.90;;;;;;5018955;28;20064;-62
2022/07/31 07:30:44;;;;;;;8.05;5.13;;;19.20;99.90;;;;;;5039108;28;20045;-62
2022/07/31 07:33:10;;;;;;;5.82;4.80;;;19.20;99.90;;;;;;5030179;28;20092;-62
2022/07/31 07:35:36;;;;;;;9.05;5.53;;;19.20;99.90;;;;;;5030609;28;20099;-62
2022/07/31 07:38:02;;;;;;;9.40;5.10;;;19.20;99.90;;;;;;5016168;28;20128;-62
2022/07/31 07:40:28;;;;;;;9.05;4.95;;;19.30;99.90;;;;;;5043436;28;20061;-62
2022/07/31 07:42:54;;;;;;;10.38;5.68;;;19.30;99.90;;;;;;5045980;28;20068;-61
2022/07/31 07:45:20;;;;;;;8.25;5.22;;;19.30;99.90;;;;;;5039786;28;20526;-62
2022/07/31 07:47:46;;;;;;;6.25;5.57;;;19.40;99.90;;;;;;5034939;28;20041;-62
2022/07/31 07:50:13;;;;;;;9.35;4.68;;;19.50;99.90;;;;;;5051631;28;20049;-62
2022/07/31 07:52:38;;;;;;;9.75;6.07;;;19.50;99.90;;;;;;5049953;28;20102;-62
2022/07/31 07:55:05;;;;;;;8.32;5.43;;;19.60;99.90;;;;;;5049997;28;20202;-62
2022/07/31 07:57:31;;;;;;;7.75;5.97;;;19.70;99.90;;;;;;5035736;28;20067;-62
2022/07/31 08:00:03;;;;;;;8.63;5.97;;;19.70;99.90;;;;;;5040054;28;20052;-63
2022/07/31 08:02:29;;;;;;;8.52;6.75;;;19.80;99.90;;;;;;5038389;28;20714;-62
2022/07/31 08:04:54;;;;;;;9.40;6.40;;;19.80;99.90;;;;;;5038669;28;20124;-62
2022/07/31 08:07:31;;;;;;;7.13;6.07;;;19.80;99.90;;;;;;5023780;28;20044;-62
2022/07/31 08:09:58;;;;;;;9.52;6.40;;;19.80;99.90;;;;;;5041671;28;20060;-62
2022/07/31 08:12:24;;;;;;;9.90;5.88;;;19.80;99.90;;;;;;5035436;28;20040;-62
2022/07/31 08:14:50;;;;;;;12.32;6.60;;;19.80;99.90;;;;;;5042244;28;20048;-62
2022/07/31 08:17:15;;;;;;;8.98;6.07;;;19.80;99.90;;;;;;5023654;28;20037;-62
2022/07/31 08:19:41;;;;;;;11.73;6.93;;;19.80;99.90;;;;;;5042755;28;20073;-62
2022/07/31 08:22:08;;;;;;;12.20;6.97;;;19.80;99.90;;;;;;5039296;28;20128;-62
2022/07/31 08:24:34;;;;;;;8.00;6.70;;;19.90;99.90;;;;;;5040291;28;20045;-62
2022/07/31 08:29:44;;;;;;;10.75;6.50;;;19.90;99.90;;;;;;5039571;28;20115;-62
2022/07/31 08:32:10;;;;;;;10.23;7.60;;;20.00;99.90;;;;;;5038681;28;20084;-63
2022/07/31 08:34:36;;;;;;;9.00;6.82;;;20.00;99.90;;;;;;5036211;28;20477;-62
2022/07/31 08:37:05;;;;;;;11.80;7.35;;;20.10;99.90;;;;;;5023096;28;20048;-62
2022/07/31 08:39:31;;;;;;;10.88;7.45;;;20.10;99.90;;;;;;5036693;28;20479;-61
2022/07/31 08:41:57;;;;;;;10.25;7.30;;;20.10;99.90;;;;;;5040678;28;20063;-62
2022/07/31 08:44:23;;;;;;;11.15;7.65;;;20.10;99.90;;;;;;5037559;28;20033;-62
2022/07/31 08:46:52;;;;;;;11.75;8.25;;;20.00;99.90;;;;;;5024573;28;20056;-62
2022/07/31 08:49:23;;;;;;;10.07;7.82;;;20.10;99.90;;;;;;5039117;28;20494;-62
2022/07/31 08:51:49;;;;;;;11.55;8.90;;;20.00;99.90;;;;;;5038766;28;20053;-62
2022/07/31 08:54:15;;;;;;;11.70;8.30;;;19.90;99.90;;;;;;5036945;28;20129;-62
2022/07/31 08:56:42;;;;;;;16.02;9.23;;;19.90;99.90;;;;;;5028276;28;20458;-62
2022/07/31 08:59:07;;;;;;;13.80;9.50;;;19.90;99.90;;;;;;5046616;28;20523;-62
2022/07/31 09:01:35;;;;;;;13.07;9.90;;;19.80;99.90;;;;;;5039034;28;20084;-62
2022/07/31 09:04:02;;;;;;;16.10;10.82;;;19.80;99.90;;;;;;5041714;28;20041;-63
2022/07/31 09:06:28;;;;;;;13.38;10.80;;;19.70;99.90;;;;;;5017648;28;20487;-63
2022/07/31 09:08:57;;;;;;;13.57;10.68;;;19.60;99.90;;;;;;5026832;28;20052;-63
2022/07/31 09:11:23;;;;;;;15.60;11.98;;;19.60;99.90;;;;;;5034660;28;20057;-63
2022/07/31 09:13:56;;;;;;;15.93;12.15;;;19.50;99.90;;;;;;5031114;28;20041;-62
2022/07/31 09:16:22;;;;;;;20.10;13.27;;;19.50;99.90;;;;;;5028400;28;20106;-64
2022/07/31 09:19:03;;;;;;;16.88;13.15;;;19.30;99.90;;;;;;5039645;28;20815;-63
2022/07/31 09:21:43;;;;;;;19.83;13.88;;;19.30;99.90;;;;;;5030692;28;20053;-64
2022/07/31 09:24:10;;;;;;;18.42;14.80;;;19.20;99.90;;;;;;5031153;28;20045;-64
2022/07/31 09:26:39;;;;;;;17.83;15.18;;;19.20;99.90;;;;;;5015873;28;20496;-64
2022/07/31 09:29:10;;;;;;;21.17;16.25;;;19.10;99.90;;;;;;5027734;28;20061;-64
2022/07/31 09:31:37;;;;;;;21.65;15.23;;;19.20;99.90;;;;;;5028315;28;20095;-65
2022/07/31 09:34:03;;;;;;;20.00;16.42;;;19.20;99.90;;;;;;5029490;28;20049;-64
2022/07/31 09:36:29;;;;;;;19.42;16.65;;;19.10;99.90;;;;;;4999795;28;20052;-64
2022/07/31 09:38:55;;;;;;;23.20;16.23;;;19.10;99.90;;;;;;5038017;28;20056;-64
2022/07/31 09:41:22;;;;;;;24.65;16.77;;;19.00;99.90;;;;;;5030069;28;20053;-64
2022/07/31 09:43:55;;;;;;;19.98;16.92;;;19.00;99.90;;;;;;5040586;28;20563;-63
2022/07/31 09:46:21;;;;;;;22.30;16.42;;;19.00;99.90;;;;;;5038683;28;20087;-64
2022/07/31 09:48:52;;;;;;;19.15;16.15;;;19.00;99.90;;;;;;5032258;28;20049;-65
2022/07/31 09:51:18;;;;;;;24.40;17.77;;;19.00;99.90;;;;;;5048290;28;20140;-64
2022/07/31 09:53:51;;;;;;;22.67;17.20;;;19.00;99.90;;;;;;5047745;28;20172;-64
2022/07/31 09:56:31;;;;;;;26.40;18.48;;;19.00;99.90;;;;;;5032266;28;20546;-65
2022/07/31 09:58:57;;;;;;;21.10;18.35;;;19.00;99.90;;;;;;5027133;28;20042;-64
2022/07/31 10:01:23;;;;;;;26.13;18.17;;;18.90;99.90;;;;;;5030695;28;20095;-64
2022/07/31 10:03:50;;;;;;;24.73;18.50;;;18.90;99.90;;;;;;5047466;28;20049;-65
2022/07/31 10:06:18;;;;;;;26.58;18.67;;;18.90;99.90;;;;;;5043818;28;20040;-65
2022/07/31 10:08:45;;;;;;;25.15;19.10;;;18.90;99.90;;;;;;5048289;28;20659;-64
2022/07/31 10:11:12;;;;;;;26.65;18.90;;;18.90;99.90;;;;;;5049904;28;20119;-65
2022/07/31 10:13:44;;;;;;;24.65;19.77;;;18.90;99.90;;;;;;5043520;28;20041;-65
2022/07/31 10:16:10;;;;;;;27.63;20.13;;;18.90;99.90;;;;;;5037817;28;20369;-66
2022/07/31 10:18:40;;;;;;;28.92;20.02;;;18.90;99.90;;;;;;5042596;28;20052;-64
2022/07/31 10:21:07;;;;;;;28.08;21.27;;;18.90;99.90;;;;;;5038544;28;20125;-64
2022/07/31 10:23:35;;;;;;;29.48;21.30;;;19.00;99.90;;;;;;5034931;28;20191;-64
2022/07/31 10:26:01;;;;;;;30.02;21.00;;;18.90;99.90;;;;;;5043371;28;20056;-64
2022/07/31 10:28:31;;;;;;;25.30;21.05;;;18.80;99.90;;;;;;5016984;28;20535;-65
2022/07/31 10:30:57;;;;;;;31.02;22.83;;;18.80;99.90;;;;;;5042849;28;20048;-64
2022/07/31 10:33:25;;;;;;;35.08;25.67;;;18.80;99.90;;;;;;5029424;28;20045;-64
2022/07/31 10:36:00;;;;;;;34.83;26.83;;;18.70;99.90;;;;;;5039944;28;20128;-64
2022/07/31 10:38:32;;;;;;;34.55;24.92;;;18.70;99.90;;;;;;5013637;28;20057;-64
2022/07/31 10:41:24;;;;;;;38.17;26.85;;;18.70;99.90;;;;;;5034457;28;20057;-64
2022/07/31 10:44:04;;;;;;;39.92;29.88;;;18.60;99.90;;;;;;5037689;28;20123;-65
2022/07/31 10:46:33;;;;;;;48.67;40.08;;;18.60;99.90;;;;;;5022585;28;20041;-65
2022/07/31 10:48:59;;;;;;;36.95;28.00;;;18.60;99.90;;;;;;5035997;28;20060;-65
2022/07/31 10:51:25;;;;;;;39.42;33.63;;;18.60;99.90;;;;;;5044452;28;20135;-65
2022/07/31 10:54:00;;;;;;;41.63;32.90;;;18.60;99.90;;;;;;5038313;28;20140;-66
2022/07/31 10:56:26;;;;;;;49.40;36.80;;;18.60;99.90;;;;;;5025627;28;20526;-65
2022/07/31 10:58:58;;;;;;;42.08;32.10;;;18.50;99.90;;;;;;5034244;28;20048;-66
2022/07/31 11:01:25;;;;;;;30.50;23.58;;;18.50;99.90;;;;;;5035834;28;20057;-65
2022/07/31 11:04:00;;;;;;;29.30;22.52;;;18.40;99.90;;;;;;5038026;28;20037;-65
2022/07/31 11:06:40;;;;;;;33.88;26.77;;;18.40;99.90;;;;;;5031782;28;20246;-65
2022/07/31 11:09:07;;;;;;;31.13;25.07;;;18.40;99.90;;;;;;5030175;28;20524;-66
2022/07/31 11:11:35;;;;;;;36.30;25.20;;;18.40;99.90;;;;;;5041901;28;20128;-66
2022/07/31 11:14:01;;;;;;;30.73;23.95;;;18.50;99.90;;;;;;5031989;28;20068;-65
2022/07/31 11:16:28;;;;;;;30.40;24.30;;;18.40;99.90;;;;;;5036057;28;20056;-65
2022/07/31 11:19:05;;;;;;;27.60;22.63;;;18.40;99.90;;;;;;5043932;28;20044;-65
2022/07/31 11:21:34;;;;;;;34.45;25.17;;;18.40;99.90;;;;;;5040097;28;20065;-66
2022/07/31 11:24:10;;;;;;;40.88;28.85;;;18.50;99.90;;;;;;5038547;28;20045;-66
2022/07/31 11:26:36;;;;;;;40.08;29.63;;;18.40;99.90;;;;;;5027473;28;20386;-66
2022/07/31 11:29:01;;;;;;;41.85;29.85;;;18.40;99.90;;;;;;5031536;28;20083;-65
2022/07/31 11:31:29;;;;;;;37.58;28.67;;;18.40;99.90;;;;;;5035055;28;20663;-66
2022/07/31 11:33:55;;;;;;;47.05;31.63;;;18.40;99.90;;;;;;5018365;28;20423;-66
2022/07/31 11:36:25;;;;;;;46.42;30.70;;;18.50;99.90;;;;;;5023095;28;20055;-66
2022/07/31 11:38:55;;;;;;;38.42;29.13;;;18.50;99.90;;;;;;5032686;28;20046;-66
2022/07/31 11:41:25;;;;;;;39.75;30.02;;;18.40;99.90;;;;;;5042430;28;20065;-65
2022/07/31 11:43:56;;;;;;;36.42;27.05;;;18.50;99.90;;;;;;5028567;28;20606;-66
2022/07/31 11:46:27;;;;;;;42.13;31.23;;;18.50;99.90;;;;;;5026024;28;20444;-65
2022/07/31 11:48:54;;;;;;;34.55;25.27;;;18.50;99.90;;;;;;5036898;28;20056;-65
2022/07/31 11:51:20;;;;;;;31.25;25.02;;;18.50;99.90;;;;;;5034766;28;20041;-64
2022/07/31 11:53:46;;;;;;;45.50;30.25;;;18.40;99.90;;;;;;5038963;28;20088;-65
2022/07/31 11:56:15;;;;;;;38.75;28.55;;;18.40;99.90;;;;;;5030307;28;20507;-65
2022/07/31 11:58:49;;;;;;;45.65;31.00;;;18.40;99.90;;;;;;5039771;28;20045;-64
2022/07/31 12:01:16;;;;;;;53.28;32.67;;;18.40;99.90;;;;;;5046500;28;20044;-64
2022/07/31 12:03:43;;;;;;;49.05;31.05;;;18.40;99.90;;;;;;5028504;28;20456;-65
2022/07/31 12:06:10;;;;;;;50.22;31.55;;;18.30;99.90;;;;;;5035448;28;20098;-66
2022/07/31 12:08:36;;;;;;;44.97;30.52;;;18.20;99.90;;;;;;5033185;28;20076;-65
2022/07/31 12:11:04;;;;;;;51.47;31.98;;;18.00;99.90;;;;;;5031752;28;20049;-65
2022/07/31 12:13:33;;;;;;;49.40;33.55;;;18.00;99.90;;;;;;5036164;28;20037;-65
2022/07/31 12:16:08;;;;;;;48.22;33.25;;;18.00;99.90;;;;;;5052590;28;20041;-65
2022/07/31 12:18:55;;;;;;;46.55;31.73;;;17.90;99.90;;;;;;5020478;28;20041;-65
2022/07/31 12:21:30;;;;;;;60.75;37.75;;;17.90;99.90;;;;;;5039687;28;20150;-65
2022/07/31 12:23:57;;;;;;;46.92;32.47;;;18.00;99.90;;;;;;5037638;28;20033;-65
2022/07/31 12:26:30;;;;;;;55.70;36.17;;;18.00;99.90;;;;;;5029524;28;20052;-67
2022/07/31 12:29:00;;;;;;;52.78;32.95;;;18.00;99.90;;;;;;5035499;28;20111;-65
2022/07/31 12:31:27;;;;;;;52.45;33.17;;;18.00;99.90;;;;;;5043438;28;20372;-65
2022/07/31 12:33:53;;;;;;;46.97;30.52;;;18.10;99.90;;;;;;5042500;28;20479;-65
2022/07/31 12:36:18;;;;;;;46.55;30.75;;;18.10;99.90;;;;;;5021471;28;20057;-66
2022/07/31 12:38:45;;;;;;;44.92;30.70;;;18.20;99.90;;;;;;5036665;28;20094;-66
2022/07/31 12:41:11;;;;;;;35.65;24.15;;;18.20;99.90;;;;;;5029498;28;20500;-65
2022/07/31 12:43:37;;;;;;;36.88;25.52;;;18.20;99.90;;;;;;5039402;28;20045;-65
2022/07/31 12:46:05;;;;;;;31.00;23.40;;;18.20;99.90;;;;;;5023692;28;20095;-66